Morrisburg, Canada
Current Conditions -  °F | °C
As of 11:53 AM on Friday 28 Nov 2014 (Local Time) from KMSS Reporting Station
Light Snow Light Snow  
Wind Chill: 13°   Ceiling: 3300
Heat Index: 24°   Visibility: 10mi
Dew Point: 13°   Wind: 12mph
Humidity: 62%   Direction: 270°W
Pressure: 30.15"   Gusts: NA
Location:  44.9°N, 75.18°W
Report Text: KMSS 281653Z AUTO 27010KT 10SM -SN OVC033 M04/M11 A3015 RMK AO2 SNB13E35B52 SLP216 P0000 T10441106
Loading
Personal Weather Stations






























Interactive Weather Map New forecast layout! Learn more

10-Day Weather Forecast

Advertisements
Track Severe Weather on mobile